sensor_id;sensor_type;location;lat;lon;timestamp;pressure;altitude;pressure_sealevel;temperature;humidity
50774;BME280;36745;48.544;8.918;2024-02-14T00:00:30;97804.34;;;1.29;92.54
50774;BME280;36745;48.544;8.918;2024-02-14T00:03:49;97818.59;;;1.22;93.03
50774;BME280;36745;48.544;8.918;2024-02-14T00:07:09;97808.41;;;1.15;93.45
50774;BME280;36745;48.544;8.918;2024-02-14T00:10:29;97813.84;;;1.15;93.26
50774;BME280;36745;48.544;8.918;2024-02-14T00:13:49;97813.63;;;1.01;93.12
50774;BME280;36745;48.544;8.918;2024-02-14T00:17:09;97810.19;;;1.04;94.03
50774;BME280;36745;48.544;8.918;2024-02-14T00:20:29;97809.53;;;1.14;94.00
50774;BME280;36745;48.544;8.918;2024-02-14T00:23:50;97813.03;;;1.15;94.77
50774;BME280;36745;48.544;8.918;2024-02-14T00:27:10;97817.38;;;1.19;95.01
50774;BME280;36745;48.544;8.918;2024-02-14T00:30:30;97812.56;;;1.09;95.85
50774;BME280;36745;48.544;8.918;2024-02-14T00:33:50;97807.88;;;1.33;94.30
50774;BME280;36745;48.544;8.918;2024-02-14T00:37:10;97813.88;;;1.45;92.96
50774;BME280;36745;48.544;8.918;2024-02-14T00:40:30;97798.53;;;1.60;92.53
50774;BME280;36745;48.544;8.918;2024-02-14T00:43:50;97805.53;;;1.61;92.77
50774;BME280;36745;48.544;8.918;2024-02-14T00:47:09;97805.59;;;1.68;93.04
50774;BME280;36745;48.544;8.918;2024-02-14T00:50:29;97806.84;;;1.74;94.30
50774;BME280;36745;48.544;8.918;2024-02-14T00:53:49;97810.47;;;1.85;94.57
50774;BME280;36745;48.544;8.918;2024-02-14T00:57:09;97811.34;;;1.93;94.37
50774;BME280;36745;48.544;8.918;2024-02-14T01:00:29;97822.34;;;2.03;93.68
50774;BME280;36745;48.544;8.918;2024-02-14T01:03:49;97823.91;;;2.04;93.41
50774;BME280;36745;48.544;8.918;2024-02-14T01:07:08;97812.28;;;2.07;94.04
50774;BME280;36745;48.544;8.918;2024-02-14T01:10:28;97818.59;;;2.15;93.90
50774;BME280;36745;48.544;8.918;2024-02-14T01:13:48;97818.19;;;2.17;94.56
50774;BME280;36745;48.544;8.918;2024-02-14T01:17:08;97806.22;;;2.21;96.03
50774;BME280;36745;48.544;8.918;2024-02-14T01:20:28;97805.09;;;2.26;96.80
50774;BME280;36745;48.544;8.918;2024-02-14T01:23:47;97805.56;;;2.35;96.35
50774;BME280;36745;48.544;8.918;2024-02-14T01:27:07;97808.69;;;2.37;95.91
50774;BME280;36745;48.544;8.918;2024-02-14T01:30:28;97802.50;;;2.40;96.84
50774;BME280;36745;48.544;8.918;2024-02-14T01:33:48;97792.41;;;2.44;96.86
50774;BME280;36745;48.544;8.918;2024-02-14T01:37:08;97791.69;;;2.47;95.61
50774;BME280;36745;48.544;8.918;2024-02-14T01:40:29;97792.88;;;2.49;95.24
50774;BME280;36745;48.544;8.918;2024-02-14T01:43:49;97791.34;;;2.52;96.45
50774;BME280;36745;48.544;8.918;2024-02-14T01:47:10;97802.25;;;2.56;96.94
50774;BME280;36745;48.544;8.918;2024-02-14T01:50:29;97793.38;;;2.62;96.06
50774;BME280;36745;48.544;8.918;2024-02-14T01:53:52;97794.88;;;2.56;97.25
50774;BME280;36745;48.544;8.918;2024-02-14T01:57:13;97796.84;;;2.59;95.98
50774;BME280;36745;48.544;8.918;2024-02-14T02:00:34;97807.41;;;2.64;97.21
50774;BME280;36745;48.544;8.918;2024-02-14T02:03:55;97798.47;;;2.67;97.88
50774;BME280;36745;48.544;8.918;2024-02-14T02:07:14;97802.00;;;2.71;97.93
50774;BME280;36745;48.544;8.918;2024-02-14T02:10:34;97798.13;;;2.72;97.46
50774;BME280;36745;48.544;8.918;2024-02-14T02:13:54;97796.53;;;2.68;98.19
50774;BME280;36745;48.544;8.918;2024-02-14T02:17:15;97785.97;;;2.59;98.52
50774;BME280;36745;48.544;8.918;2024-02-14T02:20:35;97786.34;;;2.61;99.37
50774;BME280;36745;48.544;8.918;2024-02-14T02:23:55;97793.44;;;2.69;98.16
50774;BME280;36745;48.544;8.918;2024-02-14T02:27:15;97781.00;;;2.72;97.44
50774;BME280;36745;48.544;8.918;2024-02-14T02:30:36;97767.75;;;2.70;96.82
50774;BME280;36745;48.544;8.918;2024-02-14T02:33:56;97763.09;;;2.67;97.68
50774;BME280;36745;48.544;8.918;2024-02-14T02:37:16;97754.94;;;2.71;97.32
50774;BME280;36745;48.544;8.918;2024-02-14T02:40:37;97750.69;;;2.73;97.36
50774;BME280;36745;48.544;8.918;2024-02-14T02:43:57;97745.97;;;2.70;97.62
50774;BME280;36745;48.544;8.918;2024-02-14T02:47:17;97734.41;;;2.80;97.96
50774;BME280;36745;48.544;8.918;2024-02-14T02:50:36;97737.50;;;2.82;97.49
50774;BME280;36745;48.544;8.918;2024-02-14T02:53:56;97742.94;;;2.79;98.03
50774;BME280;36745;48.544;8.918;2024-02-14T02:57:16;97754.22;;;2.77;99.13
50774;BME280;36745;48.544;8.918;2024-02-14T03:00:38;97735.50;;;2.72;98.09
50774;BME280;36745;48.544;8.918;2024-02-14T03:03:58;97737.44;;;2.68;97.66
50774;BME280;36745;48.544;8.918;2024-02-14T03:07:19;97725.75;;;2.64;97.80
50774;BME280;36745;48.544;8.918;2024-02-14T03:10:39;97734.25;;;2.59;98.86
50774;BME280;36745;48.544;8.918;2024-02-14T03:14:00;97731.94;;;2.61;98.88
50774;BME280;36745;48.544;8.918;2024-02-14T03:17:19;97744.78;;;2.64;98.06
50774;BME280;36745;48.544;8.918;2024-02-14T03:20:39;97744.38;;;2.59;98.50
50774;BME280;36745;48.544;8.918;2024-02-14T03:23:59;97757.88;;;2.48;100.00
50774;BME280;36745;48.544;8.918;2024-02-14T03:27:19;97766.78;;;2.45;100.00
50774;BME280;36745;48.544;8.918;2024-02-14T03:30:39;97763.97;;;2.34;99.88
50774;BME280;36745;48.544;8.918;2024-02-14T03:33:58;97758.00;;;2.22;100.00
50774;BME280;36745;48.544;8.918;2024-02-14T03:37:18;97767.34;;;2.21;100.00
50774;BME280;36745;48.544;8.918;2024-02-14T03:40:38;97767.34;;;2.21;100.00
50774;BME280;36745;48.544;8.918;2024-02-14T03:43:58;97777.00;;;2.15;99.07
50774;BME280;36745;48.544;8.918;2024-02-14T03:47:20;97777.72;;;2.11;100.00
50774;BME280;36745;48.544;8.918;2024-02-14T03:50:40;97782.78;;;2.09;100.00
50774;BME280;36745;48.544;8.918;2024-02-14T03:54:00;97789.13;;;2.21;100.00
50774;BME280;36745;48.544;8.918;2024-02-14T03:57:19;97786.00;;;2.22;100.00
50774;BME280;36745;48.544;8.918;2024-02-14T04:00:39;97792.16;;;2.16;100.00
50774;BME280;36745;48.544;8.918;2024-02-14T04:03:59;97785.91;;;2.11;100.00
50774;BME280;36745;48.544;8.918;2024-02-14T04:07:19;97787.38;;;2.05;100.00
50774;BME280;36745;48.544;8.918;2024-02-14T04:10:39;97782.28;;;2.00;100.00
50774;BME280;36745;48.544;8.918;2024-02-14T04:13:58;97775.63;;;1.94;100.00
50774;BME280;36745;48.544;8.918;2024-02-14T04:17:18;97770.91;;;1.88;100.00
50774;BME280;36745;48.544;8.918;2024-02-14T04:20:38;97771.81;;;2.02;100.00
50774;BME280;36745;48.544;8.918;2024-02-14T04:23:58;97785.41;;;2.02;99.93
50774;BME280;36745;48.544;8.918;2024-02-14T04:27:17;97789.53;;;1.89;100.00
50774;BME280;36745;48.544;8.918;2024-02-14T04:30:37;97791.88;;;1.87;100.00
50774;BME280;36745;48.544;8.918;2024-02-14T04:33:58;97798.81;;;1.85;100.00
50774;BME280;36745;48.544;8.918;2024-02-14T04:37:18;97794.72;;;1.68;100.00
50774;BME280;36745;48.544;8.918;2024-02-14T04:40:38;97789.03;;;1.47;100.00
50774;BME280;36745;48.544;8.918;2024-02-14T04:43:58;97790.03;;;1.65;100.00
50774;BME280;36745;48.544;8.918;2024-02-14T04:47:18;97806.34;;;1.65;100.00
50774;BME280;36745;48.544;8.918;2024-02-14T04:50:37;97807.72;;;1.52;100.00
50774;BME280;36745;48.544;8.918;2024-02-14T04:53:58;97800.88;;;1.61;100.00
50774;BME280;36745;48.544;8.918;2024-02-14T04:57:20;97810.22;;;1.64;100.00
50774;BME280;36745;48.544;8.918;2024-02-14T05:00:40;97811.03;;;1.68;100.00
50774;BME280;36745;48.544;8.918;2024-02-14T05:04:00;97820.25;;;1.60;100.00
50774;BME280;36745;48.544;8.918;2024-02-14T05:07:19;97811.03;;;1.68;100.00
50774;BME280;36745;48.544;8.918;2024-02-14T05:10:39;97811.56;;;1.77;100.00
50774;BME280;36745;48.544;8.918;2024-02-14T05:14:00;97815.91;;;1.85;100.00
50774;BME280;36745;48.544;8.918;2024-02-14T05:17:21;97811.59;;;1.81;100.00
50774;BME280;36745;48.544;8.918;2024-02-14T05:20:40;97804.31;;;1.88;100.00
50774;BME280;36745;48.544;8.918;2024-02-14T05:24:01;97806.31;;;1.95;100.00
50774;BME280;36745;48.544;8.918;2024-02-14T05:27:20;97812.16;;;1.97;100.00
50774;BME280;36745;48.544;8.918;2024-02-14T05:30:40;97814.53;;;2.02;100.00
50774;BME280;36745;48.544;8.918;2024-02-14T05:34:00;97813.69;;;1.94;100.00
50774;BME280;36745;48.544;8.918;2024-02-14T05:37:20;97820.78;;;2.06;100.00
50774;BME280;36745;48.544;8.918;2024-02-14T05:40:40;97809.88;;;2.02;100.00
50774;BME280;36745;48.544;8.918;2024-02-14T05:43:59;97800.97;;;2.05;100.00
50774;BME280;36745;48.544;8.918;2024-02-14T05:47:19;97801.38;;;2.04;100.00
50774;BME280;36745;48.544;8.918;2024-02-14T05:50:39;97789.78;;;2.10;100.00
50774;BME280;36745;48.544;8.918;2024-02-14T05:53:59;97792.56;;;2.18;100.00
50774;BME280;36745;48.544;8.918;2024-02-14T05:57:19;97800.78;;;2.21;100.00
50774;BME280;36745;48.544;8.918;2024-02-14T06:00:39;97809.03;;;2.32;100.00
50774;BME280;36745;48.544;8.918;2024-02-14T06:03:59;97800.13;;;2.35;100.00
50774;BME280;36745;48.544;8.918;2024-02-14T06:07:19;97798.63;;;2.41;100.00
50774;BME280;36745;48.544;8.918;2024-02-14T06:10:38;97793.91;;;2.38;100.00
50774;BME280;36745;48.544;8.918;2024-02-14T06:13:59;97797.41;;;2.38;100.00
50774;BME280;36745;48.544;8.918;2024-02-14T06:17:18;97814.25;;;2.51;100.00
50774;BME280;36745;48.544;8.918;2024-02-14T06:20:38;97806.47;;;2.49;100.00
50774;BME280;36745;48.544;8.918;2024-02-14T06:24:00;97794.53;;;2.61;100.00
50774;BME280;36745;48.544;8.918;2024-02-14T06:27:20;97811.28;;;2.63;100.00
50774;BME280;36745;48.544;8.918;2024-02-14T06:30:39;97811.22;;;2.60;100.00
50774;BME280;36745;48.544;8.918;2024-02-14T06:33:59;97819.44;;;2.63;100.00
50774;BME280;36745;48.544;8.918;2024-02-14T06:37:19;97825.34;;;2.72;100.00
50774;BME280;36745;48.544;8.918;2024-02-14T06:40:39;97831.97;;;2.75;100.00
50774;BME280;36745;48.544;8.918;2024-02-14T06:43:59;97831.28;;;2.85;100.00
50774;BME280;36745;48.544;8.918;2024-02-14T06:47:19;97830.09;;;2.82;100.00
50774;BME280;36745;48.544;8.918;2024-02-14T06:50:39;97825.44;;;2.83;100.00
50774;BME280;36745;48.544;8.918;2024-02-14T06:53:59;97821.56;;;2.87;100.00
50774;BME280;36745;48.544;8.918;2024-02-14T06:57:19;97828.59;;;2.88;100.00
50774;BME280;36745;48.544;8.918;2024-02-14T07:00:38;97833.22;;;2.84;100.00
50774;BME280;36745;48.544;8.918;2024-02-14T07:03:58;97822.28;;;2.81;100.00
50774;BME280;36745;48.544;8.918;2024-02-14T07:07:18;97827.78;;;2.84;100.00
50774;BME280;36745;48.544;8.918;2024-02-14T07:10:38;97820.47;;;2.95;100.00
50774;BME280;36745;48.544;8.918;2024-02-14T07:13:58;97831.41;;;3.03;100.00
50774;BME280;36745;48.544;8.918;2024-02-14T07:17:17;97831.09;;;3.15;100.00
50774;BME280;36745;48.544;8.918;2024-02-14T07:20:37;97833.84;;;3.15;100.00
50774;BME280;36745;48.544;8.918;2024-02-14T07:23:58;97839.75;;;3.24;100.00
50774;BME280;36745;48.544;8.918;2024-02-14T07:27:17;97845.63;;;3.33;100.00
50774;BME280;36745;48.544;8.918;2024-02-14T07:30:37;97838.69;;;3.46;100.00
50774;BME280;36745;48.544;8.918;2024-02-14T07:33:57;97835.25;;;3.53;100.00
50774;BME280;36745;48.544;8.918;2024-02-14T07:37:17;97832.16;;;3.58;100.00
50774;BME280;36745;48.544;8.918;2024-02-14T07:40:39;97832.97;;;3.69;100.00
50774;BME280;36745;48.544;8.918;2024-02-14T07:43:59;97845.56;;;3.88;100.00
50774;BME280;36745;48.544;8.918;2024-02-14T07:47:18;97843.25;;;3.97;100.00
50774;BME280;36745;48.544;8.918;2024-02-14T07:50:38;97855.78;;;4.19;100.00
50774;BME280;36745;48.544;8.918;2024-02-14T07:53:58;97853.09;;;4.26;100.00
50774;BME280;36745;48.544;8.918;2024-02-14T07:57:18;97858.19;;;4.38;100.00
50774;BME280;36745;48.544;8.918;2024-02-14T08:00:38;97862.13;;;4.51;100.00
50774;BME280;36745;48.544;8.918;2024-02-14T08:03:58;97867.59;;;4.65;100.00
50774;BME280;36745;48.544;8.918;2024-02-14T08:07:18;97868.41;;;4.77;100.00
50774;BME280;36745;48.544;8.918;2024-02-14T08:10:37;97873.09;;;4.90;100.00
50774;BME280;36745;48.544;8.918;2024-02-14T08:13:58;97874.66;;;5.09;100.00
50774;BME280;36745;48.544;8.918;2024-02-14T08:17:19;97863.72;;;5.30;100.00
50774;BME280;36745;48.544;8.918;2024-02-14T08:20:38;97876.19;;;5.45;100.00
50774;BME280;36745;48.544;8.918;2024-02-14T08:23:58;97880.09;;;5.66;100.00
50774;BME280;36745;48.544;8.918;2024-02-14T08:27:18;97880.81;;;5.80;100.00
50774;BME280;36745;48.544;8.918;2024-02-14T08:30:38;97876.09;;;6.02;100.00
50774;BME280;36745;48.544;8.918;2024-02-14T08:33:58;97876.03;;;6.16;100.00
50774;BME280;36745;48.544;8.918;2024-02-14T08:37:18;97884.22;;;6.30;100.00
50774;BME280;36745;48.544;8.918;2024-02-14T08:40:38;97886.09;;;6.48;100.00
50774;BME280;36745;48.544;8.918;2024-02-14T08:43:57;97883.69;;;6.57;100.00
50774;BME280;36745;48.544;8.918;2024-02-14T08:47:17;97876.53;;;6.70;100.00
50774;BME280;36745;48.544;8.918;2024-02-14T08:50:37;97890.59;;;6.79;99.42
50774;BME280;36745;48.544;8.918;2024-02-14T08:53:57;97885.00;;;6.93;99.26
50774;BME280;36745;48.544;8.918;2024-02-14T08:57:19;97890.06;;;6.98;98.80
50774;BME280;36745;48.544;8.918;2024-02-14T09:00:39;97894.41;;;6.92;98.29
50774;BME280;36745;48.544;8.918;2024-02-14T09:04:00;97885.00;;;6.93;98.16
50774;BME280;36745;48.544;8.918;2024-02-14T09:07:20;97885.41;;;6.95;97.83
50774;BME280;36745;48.544;8.918;2024-02-14T09:10:39;97884.53;;;7.05;97.18
50774;BME280;36745;48.544;8.918;2024-02-14T09:13:59;97889.09;;;7.23;97.22
50774;BME280;36745;48.544;8.918;2024-02-14T09:17:24;97893.69;;;7.36;96.93
50774;BME280;36745;48.544;8.918;2024-02-14T09:20:43;97902.19;;;7.49;97.09
50774;BME280;36745;48.544;8.918;2024-02-14T09:24:05;97899.25;;;7.70;97.19
50774;BME280;36745;48.544;8.918;2024-02-14T09:27:26;97895.50;;;7.91;97.65
50774;BME280;36745;48.544;8.918;2024-02-14T09:30:46;97886.13;;;8.22;97.36
50774;BME280;36745;48.544;8.918;2024-02-14T09:34:06;97886.59;;;8.51;97.24
50774;BME280;36745;48.544;8.918;2024-02-14T09:37:26;97884.09;;;8.60;96.31
50774;BME280;36745;48.544;8.918;2024-02-14T09:40:50;97880.81;;;8.72;94.37
50774;BME280;36745;48.544;8.918;2024-02-14T09:44:13;97877.34;;;8.68;92.84
50774;BME280;36745;48.544;8.918;2024-02-14T09:47:33;97884.66;;;8.78;92.75
50774;BME280;36745;48.544;8.918;2024-02-14T09:50:53;97894.72;;;8.89;92.06
50774;BME280;36745;48.544;8.918;2024-02-14T09:54:13;97880.28;;;9.08;92.58
50774;BME280;36745;48.544;8.918;2024-02-14T09:57:33;97888.78;;;9.17;91.26
50774;BME280;36745;48.544;8.918;2024-02-14T10:00:54;97880.22;;;9.58;92.08
50774;BME280;36745;48.544;8.918;2024-02-14T10:04:13;97881.59;;;9.69;90.32
50774;BME280;36745;48.544;8.918;2024-02-14T10:07:43;97878.81;;;9.50;88.89
50774;BME280;36745;48.544;8.918;2024-02-14T10:11:05;97882.31;;;9.74;88.62
50774;BME280;36745;48.544;8.918;2024-02-14T10:14:25;97873.88;;;9.61;87.13
50774;BME280;36745;48.544;8.918;2024-02-14T10:17:45;97881.34;;;9.84;87.23
50774;BME280;36745;48.544;8.918;2024-02-14T10:21:05;97868.63;;;10.09;87.63
50774;BME280;36745;48.544;8.918;2024-02-14T10:24:26;97874.94;;;10.10;85.46
50774;BME280;36745;48.544;8.918;2024-02-14T10:27:46;97872.91;;;10.14;85.65
50774;BME280;36745;48.544;8.918;2024-02-14T10:31:06;97860.84;;;10.28;84.84
50774;BME280;36745;48.544;8.918;2024-02-14T10:34:29;97864.19;;;10.16;84.18
50774;BME280;36745;48.544;8.918;2024-02-14T10:37:49;97863.88;;;10.33;83.73
50774;BME280;36745;48.544;8.918;2024-02-14T10:41:09;97863.69;;;10.24;83.51
50774;BME280;36745;48.544;8.918;2024-02-14T10:44:31;97872.72;;;10.25;83.34
50774;BME280;36745;48.544;8.918;2024-02-14T10:47:53;97866.81;;;10.42;83.59
50774;BME280;36745;48.544;8.918;2024-02-14T10:51:14;97856.19;;;10.61;81.91
50774;BME280;36745;48.544;8.918;2024-02-14T10:54:35;97850.59;;;10.64;81.47
50774;BME280;36745;48.544;8.918;2024-02-14T10:57:57;97866.72;;;10.66;82.27
50774;BME280;36745;48.544;8.918;2024-02-14T11:01:17;97865.53;;;10.67;81.60
50774;BME280;36745;48.544;8.918;2024-02-14T11:04:37;97882.28;;;10.92;81.79
50774;BME280;36745;48.544;8.918;2024-02-14T11:08:07;97871.78;;;11.03;81.34
50774;BME280;36745;48.544;8.918;2024-02-14T11:11:29;97871.94;;;11.12;81.68
50774;BME280;36745;48.544;8.918;2024-02-14T11:14:50;97870.44;;;11.27;82.03
50774;BME280;36745;48.544;8.918;2024-02-14T11:18:12;97868.50;;;11.41;81.25
50774;BME280;36745;48.544;8.918;2024-02-14T11:21:35;97870.06;;;11.58;78.97
50774;BME280;36745;48.544;8.918;2024-02-14T11:24:56;97861.78;;;11.58;80.04
50774;BME280;36745;48.544;8.918;2024-02-14T11:28:19;97866.34;;;11.64;78.37
50774;BME280;36745;48.544;8.918;2024-02-14T11:31:44;97869.19;;;11.77;78.96
50774;BME280;36745;48.544;8.918;2024-02-14T11:35:05;97867.66;;;11.76;78.86
50774;BME280;36745;48.544;8.918;2024-02-14T11:38:25;97864.34;;;11.81;78.43
50774;BME280;36745;48.544;8.918;2024-02-14T11:41:45;97870.16;;;11.99;78.66
50774;BME280;36745;48.544;8.918;2024-02-14T11:45:05;97858.78;;;12.39;78.62
50774;BME280;36745;48.544;8.918;2024-02-14T11:48:25;97857.97;;;13.18;76.93
50774;BME280;36745;48.544;8.918;2024-02-14T11:51:45;97862.97;;;14.26;76.41
50774;BME280;36745;48.544;8.918;2024-02-14T11:55:05;97853.81;;;14.60;73.02
50774;BME280;36745;48.544;8.918;2024-02-14T11:58:25;97855.44;;;14.79;67.92
50774;BME280;36745;48.544;8.918;2024-02-14T12:01:45;97864.94;;;14.38;68.98
50774;BME280;36745;48.544;8.918;2024-02-14T12:05:06;97857.50;;;14.13;69.15
50774;BME280;36745;48.544;8.918;2024-02-14T12:08:25;97856.63;;;13.35;70.77
50774;BME280;36745;48.544;8.918;2024-02-14T12:11:46;97859.84;;;13.08;70.83
50774;BME280;36745;48.544;8.918;2024-02-14T12:15:09;97853.88;;;12.84;71.26
50774;BME280;36745;48.544;8.918;2024-02-14T12:18:29;97863.03;;;12.56;73.05
50774;BME280;36745;48.544;8.918;2024-02-14T12:21:49;97853.28;;;12.64;73.95
50774;BME280;36745;48.544;8.918;2024-02-14T12:25:08;97855.75;;;12.87;73.52
50774;BME280;36745;48.544;8.918;2024-02-14T12:28:31;97857.50;;;13.07;73.97
50774;BME280;36745;48.544;8.918;2024-02-14T12:31:51;97860.63;;;13.09;74.17
50774;BME280;36745;48.544;8.918;2024-02-14T12:35:11;97844.13;;;13.18;74.57
50774;BME280;36745;48.544;8.918;2024-02-14T12:38:31;97839.97;;;13.60;74.60
50774;BME280;36745;48.544;8.918;2024-02-14T12:41:52;97840.34;;;14.06;72.79
50774;BME280;36745;48.544;8.918;2024-02-14T12:45:11;97834.44;;;14.38;73.33
50774;BME280;36745;48.544;8.918;2024-02-14T12:48:31;97834.34;;;14.07;69.81
50774;BME280;36745;48.544;8.918;2024-02-14T12:51:51;97828.63;;;13.67;70.08
50774;BME280;36745;48.544;8.918;2024-02-14T12:55:11;97825.75;;;13.11;71.86
50774;BME280;36745;48.544;8.918;2024-02-14T12:58:32;97824.97;;;12.98;72.92
50774;BME280;36745;48.544;8.918;2024-02-14T13:01:52;97836.91;;;13.08;73.36
50774;BME280;36745;48.544;8.918;2024-02-14T13:05:11;97832.94;;;13.09;73.41
50774;BME280;36745;48.544;8.918;2024-02-14T13:08:31;97833.16;;;13.01;73.12
50774;BME280;36745;48.544;8.918;2024-02-14T13:11:51;97835.97;;;13.14;73.37
50774;BME280;36745;48.544;8.918;2024-02-14T13:15:11;97842.28;;;13.15;73.64
50774;BME280;36745;48.544;8.918;2024-02-14T13:18:31;97839.84;;;13.17;73.23
50774;BME280;36745;48.544;8.918;2024-02-14T13:21:51;97828.66;;;13.20;73.45
50774;BME280;36745;48.544;8.918;2024-02-14T13:25:11;97823.22;;;13.17;73.87
50774;BME280;36745;48.544;8.918;2024-02-14T13:28:31;97819.44;;;13.11;73.61
50774;BME280;36745;48.544;8.918;2024-02-14T13:31:51;97819.09;;;12.96;74.00
50774;BME280;36745;48.544;8.918;2024-02-14T13:35:10;97821.91;;;12.83;74.44
50774;BME280;36745;48.544;8.918;2024-02-14T13:38:32;97810.84;;;12.83;74.49
50774;BME280;36745;48.544;8.918;2024-02-14T13:41:52;97814.59;;;12.89;74.47
50774;BME280;36745;48.544;8.918;2024-02-14T13:45:14;97809.63;;;12.84;74.74
50774;BME280;36745;48.544;8.918;2024-02-14T13:48:35;97810.84;;;12.83;75.14
50774;BME280;36745;48.544;8.918;2024-02-14T13:51:55;97815.38;;;12.90;74.67
50774;BME280;36745;48.544;8.918;2024-02-14T13:55:15;97812.94;;;12.79;74.21
50774;BME280;36745;48.544;8.918;2024-02-14T13:58:35;97822.88;;;12.77;74.37
50774;BME280;36745;48.544;8.918;2024-02-14T14:01:57;97814.72;;;12.73;75.00
50774;BME280;36745;48.544;8.918;2024-02-14T14:05:17;97813.25;;;12.81;75.05
50774;BME280;36745;48.544;8.918;2024-02-14T14:08:37;97820.47;;;12.79;75.05
50774;BME280;36745;48.544;8.918;2024-02-14T14:11:56;97819.69;;;12.78;75.00
50774;BME280;36745;48.544;8.918;2024-02-14T14:15:16;97801.63;;;12.86;75.30
50774;BME280;36745;48.544;8.918;2024-02-14T14:18:36;97800.97;;;12.95;74.42
50774;BME280;36745;48.544;8.918;2024-02-14T14:21:56;97802.84;;;12.85;74.95
50774;BME280;36745;48.544;8.918;2024-02-14T14:25:16;97813.72;;;12.67;74.58
50774;BME280;36745;48.544;8.918;2024-02-14T14:28:37;97818.25;;;12.74;75.09
50774;BME280;36745;48.544;8.918;2024-02-14T14:31:57;97814.16;;;12.78;75.44
50774;BME280;36745;48.544;8.918;2024-02-14T14:35:18;97814.69;;;12.86;75.51
50774;BME280;36745;48.544;8.918;2024-02-14T14:38:39;97822.66;;;12.96;75.21
50774;BME280;36745;48.544;8.918;2024-02-14T14:42:00;97804.41;;;12.86;75.31
50774;BME280;36745;48.544;8.918;2024-02-14T14:45:20;97809.38;;;12.91;75.30
50774;BME280;36745;48.544;8.918;2024-02-14T14:48:39;97805.38;;;12.92;75.25
50774;BME280;36745;48.544;8.918;2024-02-14T14:51:59;97807.06;;;12.77;75.29
50774;BME280;36745;48.544;8.918;2024-02-14T14:55:19;97802.84;;;12.85;75.30
50774;BME280;36745;48.544;8.918;2024-02-14T14:58:39;97802.63;;;12.92;75.17
50774;BME280;36745;48.544;8.918;2024-02-14T15:02:01;97804.63;;;13.04;74.95
50774;BME280;36745;48.544;8.918;2024-02-14T15:05:21;97806.16;;;12.93;74.91
50774;BME280;36745;48.544;8.918;2024-02-14T15:08:41;97797.44;;;12.94;75.05
50774;BME280;36745;48.544;8.918;2024-02-14T15:12:03;97787.09;;;13.08;74.47
50774;BME280;36745;48.544;8.918;2024-02-14T15:15:24;97786.44;;;13.03;74.82
50774;BME280;36745;48.544;8.918;2024-02-14T15:18:44;97785.03;;;12.99;74.57
50774;BME280;36745;48.544;8.918;2024-02-14T15:22:04;97788.34;;;12.94;75.25
50774;BME280;36745;48.544;8.918;2024-02-14T15:25:23;97792.88;;;12.75;75.55
50774;BME280;36745;48.544;8.918;2024-02-14T15:28:45;97805.50;;;12.76;75.67
50774;BME280;36745;48.544;8.918;2024-02-14T15:32:05;97799.28;;;12.85;75.45
50774;BME280;36745;48.544;8.918;2024-02-14T15:35:43;97813.81;;;12.76;75.35
50774;BME280;36745;48.544;8.918;2024-02-14T15:39:03;97816.03;;;12.81;75.49
50774;BME280;36745;48.544;8.918;2024-02-14T15:42:23;97818.47;;;12.79;75.74
50774;BME280;36745;48.544;8.918;2024-02-14T15:45:43;97807.19;;;12.74;75.87
50774;BME280;36745;48.544;8.918;2024-02-14T15:49:02;97804.50;;;12.70;76.06
50774;BME280;36745;48.544;8.918;2024-02-14T15:52:22;97798.66;;;12.68;76.36
50774;BME280;36745;48.544;8.918;2024-02-14T15:55:42;97795.75;;;12.59;76.73
50774;BME280;36745;48.544;8.918;2024-02-14T15:59:02;97808.59;;;12.53;76.77
50774;BME280;36745;48.544;8.918;2024-02-14T16:02:22;97819.00;;;12.49;77.13
50774;BME280;36745;48.544;8.918;2024-02-14T16:05:41;97809.69;;;12.43;77.42
50774;BME280;36745;48.544;8.918;2024-02-14T16:09:02;97813.00;;;12.38;77.63
50774;BME280;36745;48.544;8.918;2024-02-14T16:12:22;97810.78;;;12.33;77.98
50774;BME280;36745;48.544;8.918;2024-02-14T16:15:42;97825.03;;;12.31;77.80
50774;BME280;36745;48.544;8.918;2024-02-14T16:19:02;97818.97;;;12.24;78.11
50774;BME280;36745;48.544;8.918;2024-02-14T16:22:21;97815.19;;;12.17;78.68
50774;BME280;36745;48.544;8.918;2024-02-14T16:25:43;97813.75;;;12.13;78.99
50774;BME280;36745;48.544;8.918;2024-02-14T16:29:04;97810.31;;;12.09;79.16
50774;BME280;36745;48.544;8.918;2024-02-14T16:32:23;97816.25;;;12.07;79.45
50774;BME280;36745;48.544;8.918;2024-02-14T16:35:43;97819.03;;;12.07;79.47
50774;BME280;36745;48.544;8.918;2024-02-14T16:39:03;97813.16;;;12.05;79.72
50774;BME280;36745;48.544;8.918;2024-02-14T16:42:23;97829.06;;;12.01;79.87
50774;BME280;36745;48.544;8.918;2024-02-14T16:45:43;97826.84;;;11.96;80.42
50774;BME280;36745;48.544;8.918;2024-02-14T16:49:03;97823.72;;;11.94;80.57
50774;BME280;36745;48.544;8.918;2024-02-14T16:52:23;97818.19;;;11.94;80.38
50774;BME280;36745;48.544;8.918;2024-02-14T16:55:43;97820.72;;;11.89;80.76
50774;BME280;36745;48.544;8.918;2024-02-14T16:59:02;97828.78;;;11.83;81.17
50774;BME280;36745;48.544;8.918;2024-02-14T17:02:22;97837.50;;;11.82;81.30
50774;BME280;36745;48.544;8.918;2024-02-14T17:05:45;97839.03;;;11.83;80.93
50774;BME280;36745;48.544;8.918;2024-02-14T17:09:05;97824.56;;;11.78;81.28
50774;BME280;36745;48.544;8.918;2024-02-14T17:12:26;97838.97;;;11.70;81.83
50774;BME280;36745;48.544;8.918;2024-02-14T17:15:46;97838.72;;;11.64;82.25
50774;BME280;36745;48.544;8.918;2024-02-14T17:19:05;97835.59;;;11.62;82.38
50774;BME280;36745;48.544;8.918;2024-02-14T17:22:26;97847.78;;;11.65;82.17
50774;BME280;36745;48.544;8.918;2024-02-14T17:25:46;97857.44;;;11.57;82.57
50774;BME280;36745;48.544;8.918;2024-02-14T17:29:06;97857.13;;;11.55;82.39
50774;BME280;36745;48.544;8.918;2024-02-14T17:32:25;97857.19;;;11.51;83.27
50774;BME280;36745;48.544;8.918;2024-02-14T17:35:45;97857.66;;;11.50;83.67
50774;BME280;36745;48.544;8.918;2024-02-14T17:39:05;97849.28;;;11.53;83.72
50774;BME280;36745;48.544;8.918;2024-02-14T17:42:25;97850.56;;;11.65;83.15